createdAt,value
2018-03-17T00:00:27.380Z,12.76
2018-03-17T00:06:28.178Z,10.81
2018-03-17T00:10:28.934Z,10.55
2018-03-17T00:16:29.659Z,11.94
2018-03-17T00:20:30.418Z,12.28
2018-03-17T00:22:31.080Z,10.57
2018-03-17T00:26:31.839Z,10.65
2018-03-17T00:32:32.674Z,14.83
2018-03-17T00:36:33.333Z,13.57
2018-03-17T00:42:34.171Z,16.05
2018-03-17T00:46:34.952Z,15.52
2018-03-17T00:48:35.792Z,14.45
2018-03-17T00:52:36.460Z,12.47
2018-03-17T00:58:37.325Z,12.79
2018-03-17T01:02:38.024Z,10.97
2018-03-17T01:08:38.744Z,11.55
2018-03-17T01:12:39.531Z,11.61
2018-03-17T01:14:40.271Z,13.06
2018-03-17T01:18:40.982Z,14.75
2018-03-17T01:24:41.774Z,17.59
2018-03-17T01:28:42.496Z,13.78
2018-03-17T01:34:43.277Z,14.61
2018-03-17T01:38:44.095Z,14.46
2018-03-17T01:40:45.090Z,14.95
2018-03-17T01:44:45.878Z,13.09
2018-03-17T01:50:46.674Z,15.65
2018-03-17T01:54:47.510Z,13.84
2018-03-17T02:00:48.316Z,16.33
2018-03-17T02:04:49.119Z,16.46
2018-03-17T02:06:49.822Z,15.81
2018-03-17T02:10:50.661Z,16.65
2018-03-17T02:16:51.395Z,21.55
2018-03-17T02:20:52.231Z,21.32
2018-03-17T02:26:53.043Z,20.44
2018-03-17T02:30:53.808Z,20.14
2018-03-17T02:32:54.703Z,18.31
2018-03-17T02:36:55.608Z,18.93
2018-03-17T02:42:56.370Z,17.59
2018-03-17T02:46:57.172Z,16.36
2018-03-17T02:52:58.088Z,16.91
2018-03-17T02:56:58.707Z,15.71
2018-03-17T02:58:59.443Z,17.62
2018-03-17T03:03:00.400Z,18.92
2018-03-17T03:09:01.032Z,19.75
2018-03-17T03:13:01.962Z,20.56
2018-03-17T03:19:02.604Z,20.85
2018-03-17T03:23:03.407Z,20.58
2018-03-17T03:25:04.158Z,21.7
2018-03-17T03:29:04.890Z,20.52
2018-03-17T03:35:05.644Z,23.15
2018-03-17T03:39:06.409Z,23.17
2018-03-17T03:45:07.767Z,21.37
2018-03-17T03:49:08.571Z,21.13
2018-03-17T03:51:09.344Z,21.96
2018-03-17T03:55:10.180Z,21.82
2018-03-17T04:01:11.042Z,22.28
2018-03-17T04:05:11.827Z,21.74
2018-03-17T04:11:12.620Z,22.68
2018-03-17T04:15:13.672Z,23.56
2018-03-17T04:17:14.340Z,24.15
2018-03-17T04:21:15.023Z,24.01
2018-03-17T04:27:15.791Z,26.33
2018-03-17T04:31:16.614Z,28.02
2018-03-17T04:37:17.344Z,26.54
2018-03-17T04:41:18.250Z,25.6
2018-03-17T04:43:18.944Z,28.1
2018-03-17T04:47:19.752Z,28.38
2018-03-17T04:53:20.523Z,27.63
2018-03-17T04:57:21.338Z,28.96
2018-03-17T05:03:22.076Z,29.44
2018-03-17T05:07:22.830Z,30.17
2018-03-17T05:09:23.586Z,28.31
2018-03-17T05:13:24.314Z,29.67
2018-03-17T05:19:25.150Z,30.06
2018-03-17T05:23:25.820Z,29.53
2018-03-17T05:29:26.528Z,31
2018-03-17T05:33:27.493Z,31.25
2018-03-17T05:35:28.197Z,31.63
2018-03-17T05:39:29.001Z,31.9
2018-03-17T05:45:30.271Z,30.55
2018-03-17T05:49:31.006Z,30.87
2018-03-17T05:55:31.737Z,32.87
2018-03-17T05:59:32.449Z,34.21
2018-03-17T06:01:33.154Z,34.4
2018-03-17T06:05:33.949Z,33.06
2018-03-17T06:11:34.713Z,34.8
2018-03-17T06:15:35.448Z,34
2018-03-17T06:21:36.222Z,30.96
2018-03-17T06:25:36.972Z,32.9
2018-03-17T06:27:37.725Z,34.34
2018-03-17T06:31:38.427Z,34.35
2018-03-17T06:37:39.209Z,31.62
2018-03-17T06:41:40.004Z,31.67
2018-03-17T06:47:40.686Z,30.97
2018-03-17T06:51:41.409Z,31.31
2018-03-17T06:53:42.141Z,30.37
2018-03-17T06:57:42.879Z,31.38
2018-03-17T07:03:43.675Z,29.66
2018-03-17T07:07:44.416Z,30.01
2018-03-17T07:13:45.169Z,13.81
2018-03-17T07:17:45.939Z,13.43
2018-03-17T07:19:46.589Z,15.68
2018-03-17T07:23:47.303Z,15.53
2018-03-17T07:29:48.146Z,12.81
2018-03-17T07:33:49.132Z,13.97
2018-03-17T07:39:49.876Z,10.8
2018-03-17T07:43:50.616Z,10.62
2018-03-17T07:45:51.337Z,10.85
2018-03-17T07:49:52.196Z,11.16
2018-03-17T07:55:52.963Z,13.29
2018-03-17T07:59:53.766Z,14.53
2018-03-17T08:05:54.672Z,17.7
2018-03-17T08:09:55.487Z,18.56
2018-03-17T08:11:56.138Z,17.99
2018-03-17T08:15:56.858Z,18.79
2018-03-17T08:21:57.698Z,17.85
2018-03-17T08:25:58.505Z,19.09
2018-03-17T08:31:59.478Z,20.84
2018-03-17T08:36:00.213Z,20.85
2018-03-17T08:38:01.059Z,18.29
2018-03-17T08:42:01.888Z,17.64
2018-03-17T08:48:03.736Z,18.08
2018-03-17T08:52:04.720Z,15.43
2018-03-17T08:58:05.553Z,8.97
2018-03-17T09:02:06.276Z,7.52
2018-03-17T09:08:07.002Z,5.94
2018-03-17T09:14:07.873Z,7.07
2018-03-17T09:18:09.020Z,7.45
2018-03-17T09:24:09.800Z,17.91
2018-03-17T09:28:10.721Z,17.4
2018-03-17T09:30:11.875Z,14.83
2018-03-17T09:34:12.697Z,15.35
2018-03-17T09:40:13.470Z,14.52
2018-03-17T09:44:14.325Z,15.19
2018-03-17T09:50:15.182Z,23.08
2018-03-17T09:54:15.962Z,15.09
2018-03-17T10:00:17.096Z,10.22
2018-03-17T10:06:17.811Z,17.32
2018-03-17T10:10:18.558Z,14.05
2018-03-17T10:16:19.281Z,14.83
2018-03-17T10:20:20.173Z,13.99
2018-03-17T10:22:21.009Z,12.64
2018-03-17T10:26:21.732Z,10.92
2018-03-17T10:32:22.555Z,12.32
2018-03-17T10:36:23.355Z,12.01
2018-03-17T10:42:24.031Z,8.49
2018-03-17T10:46:24.791Z,7.86
2018-03-17T10:48:25.456Z,7.77
2018-03-17T10:52:26.224Z,8.55
2018-03-17T10:58:26.891Z,8.67
2018-03-17T11:02:27.622Z,8.44
2018-03-17T11:08:28.456Z,5.06
2018-03-17T11:12:29.156Z,6.07
2018-03-17T11:14:29.888Z,3.84
2018-03-17T11:18:30.620Z,4.06
2018-03-17T11:24:31.474Z,3.88
2018-03-17T11:28:32.291Z,4.49
2018-03-17T11:34:33.163Z,5.14
2018-03-17T11:38:33.844Z,6.41
2018-03-17T11:40:34.491Z,5.66
2018-03-17T11:44:35.268Z,3.52
2018-03-17T11:50:36.137Z,3.89
2018-03-17T11:54:36.768Z,3.72
2018-03-17T12:00:38.061Z,6.14
2018-03-17T12:04:38.749Z,6.24
2018-03-17T12:06:39.467Z,5.68
2018-03-17T12:10:40.172Z,5.75
2018-03-17T12:16:40.918Z,5.03
2018-03-17T12:20:41.701Z,4.7
2018-03-17T12:26:42.459Z,2.29
2018-03-17T12:30:43.199Z,2.16
2018-03-17T12:32:44.037Z,2.41
2018-03-17T12:36:45.276Z,4
2018-03-17T12:42:46.738Z,2.96
2018-03-17T12:46:47.624Z,3.7
2018-03-17T12:52:48.525Z,2.06
2018-03-17T12:56:49.206Z,3.07
2018-03-17T12:58:50.032Z,2.38
2018-03-17T13:02:51.030Z,2.81
2018-03-17T13:08:51.837Z,3.51
2018-03-17T13:12:52.700Z,3.91
2018-03-17T13:18:53.510Z,2.89
2018-03-17T13:22:54.479Z,5.07
2018-03-17T13:24:55.757Z,5.53
2018-03-17T13:28:56.854Z,2.96
2018-03-17T13:34:57.769Z,2.1
2018-03-17T13:38:58.711Z,3.39
2018-03-17T13:44:59.514Z,3.13
2018-03-17T13:49:00.299Z,4.84
2018-03-17T13:55:01.109Z,2.77
2018-03-17T14:01:02.010Z,4.06
2018-03-17T14:05:02.764Z,3.74
2018-03-17T14:11:03.612Z,2.95
2018-03-17T14:15:04.493Z,4.47
2018-03-17T14:17:05.306Z,3.02
2018-03-17T14:21:06.051Z,3.17
2018-03-17T14:27:06.812Z,4.45
2018-03-17T14:31:07.751Z,6.43
2018-03-17T14:37:08.595Z,5.22
2018-03-17T14:41:09.510Z,4.47
2018-03-17T14:43:10.232Z,3.41
2018-03-17T14:47:11.033Z,3.75
2018-03-17T14:53:16.412Z,5.23
2018-03-17T14:57:17.715Z,5.62
2018-03-17T15:03:18.414Z,9.76
2018-03-17T15:07:19.214Z,5.09
2018-03-17T15:13:20.016Z,8.51
2018-03-17T15:19:21.049Z,5.1
2018-03-17T15:23:22.016Z,4.05
2018-03-17T15:29:22.824Z,5.43
2018-03-17T15:33:23.602Z,4.88
2018-03-17T15:39:24.431Z,6.35
2018-03-17T15:45:25.875Z,6.66
2018-03-17T15:49:26.716Z,8.35
2018-03-17T15:55:27.471Z,7.98
2018-03-17T15:59:28.258Z,8.05
2018-03-17T16:05:29.101Z,5.79
2018-03-17T16:11:29.818Z,8.54
2018-03-17T16:15:30.542Z,7.34
2018-03-17T16:21:31.664Z,9.37
2018-03-17T16:25:32.458Z,9.46
2018-03-17T16:31:33.402Z,10.78
2018-03-17T16:37:34.258Z,9.33
2018-03-17T16:41:35.055Z,9.09
2018-03-17T16:47:36.062Z,9.13
2018-03-17T16:51:36.944Z,8.66
2018-03-17T16:57:37.662Z,7.61
2018-03-17T17:03:38.535Z,8.46
2018-03-17T17:07:39.509Z,5
2018-03-17T17:13:40.397Z,9.1
2018-03-17T17:17:41.140Z,7.09
2018-03-17T17:23:42.232Z,7.62
2018-03-17T17:29:43.017Z,8.4
2018-03-17T17:33:43.768Z,8.78
2018-03-17T17:39:44.638Z,10.03
2018-03-17T17:43:45.510Z,8.17
2018-03-17T17:49:46.252Z,7.46
2018-03-17T17:55:47.764Z,8.59
2018-03-17T17:59:48.561Z,9.05
2018-03-17T18:05:49.655Z,9.91
2018-03-17T18:09:50.353Z,9.15
2018-03-17T18:15:51.387Z,7.14
2018-03-17T18:21:52.477Z,13.76
2018-03-17T18:25:53.473Z,16.87
2018-03-17T18:31:54.574Z,8.88
2018-03-17T18:35:55.411Z,12.6
2018-03-17T18:41:56.174Z,14.24
2018-03-17T18:47:57.081Z,14.68
2018-03-17T18:51:58.005Z,10.21
2018-03-17T18:57:58.787Z,11.92
2018-03-17T19:01:59.576Z,12.33
2018-03-17T19:04:00.237Z,12.23
2018-03-17T19:08:01.164Z,11.26
2018-03-17T19:14:01.969Z,10.98
2018-03-17T19:18:02.726Z,10.22
2018-03-17T19:24:03.530Z,8.85
2018-03-17T19:28:04.293Z,10.24
2018-03-17T19:30:04.998Z,11.13
2018-03-17T19:34:05.787Z,11.26
2018-03-17T19:40:06.585Z,12.85
2018-03-17T19:44:07.328Z,15.42
2018-03-17T19:50:08.071Z,12.56
2018-03-17T19:54:08.816Z,14.49
2018-03-17T19:56:09.553Z,11.63
2018-03-17T20:00:10.734Z,10.89
2018-03-17T20:06:11.490Z,13.31
2018-03-17T20:10:12.312Z,12.68
2018-03-17T20:16:13.506Z,12.99
2018-03-17T20:20:14.348Z,12.4
2018-03-17T20:22:15.072Z,15.11
2018-03-17T20:26:15.932Z,16.6
2018-03-17T20:32:16.756Z,15.36
2018-03-17T20:36:17.628Z,13.24
2018-03-17T20:42:18.313Z,15.49
2018-03-17T20:46:19.234Z,14.32
2018-03-17T20:48:20.040Z,12.36
2018-03-17T20:52:20.976Z,11.41
2018-03-17T20:58:21.789Z,13.33
2018-03-17T21:02:22.639Z,17.4
2018-03-17T21:08:23.424Z,15.01
2018-03-17T21:12:24.363Z,15.59
2018-03-17T21:14:25.150Z,14.02
2018-03-17T21:18:25.927Z,10.65
2018-03-17T21:24:26.818Z,14.93
2018-03-17T21:28:27.582Z,12.92
2018-03-17T21:34:28.327Z,11.17
2018-03-17T21:38:28.954Z,12.83
2018-03-17T21:40:29.747Z,15.07
2018-03-17T21:44:30.697Z,14.44
2018-03-17T21:50:31.495Z,11.98
2018-03-17T21:54:32.367Z,14.88
2018-03-17T22:00:33.202Z,14.7
2018-03-17T22:04:34.331Z,11.07
2018-03-17T22:10:35.181Z,11.18
2018-03-17T22:16:36.261Z,17.12
2018-03-17T22:20:37.268Z,12.15
2018-03-17T22:26:38.140Z,11.74
2018-03-17T22:30:38.973Z,11.12
2018-03-17T22:36:39.666Z,14.34
2018-03-17T22:42:40.572Z,12.74
2018-03-17T22:46:41.399Z,11.93
2018-03-17T22:52:42.272Z,11.72
2018-03-17T22:56:43.237Z,11.98
2018-03-17T23:02:44.173Z,8.76
2018-03-17T23:08:44.877Z,12.51
2018-03-17T23:12:45.777Z,8.63
2018-03-17T23:18:46.528Z,11.19
2018-03-17T23:22:47.292Z,10.25
2018-03-17T23:24:48.058Z,9.21
2018-03-17T23:28:48.850Z,11.43
2018-03-17T23:34:49.578Z,12.85
2018-03-17T23:38:50.339Z,10.56
2018-03-17T23:44:51.115Z,9.86
2018-03-17T23:48:51.835Z,9.52
2018-03-17T23:50:52.622Z,11.54
2018-03-17T23:54:53.273Z,10.28
